Nearby METAR Reports

 

KSJC - San Jose, California, USA
Distance from station: NE 14km
Updated: 14/06/2024 03:53
Clear
Clear
 Wind from SSE
Wind: SSE 13 km/h
Temperature: 13°C
Dew Point: 9°C
Humidity: 77%
Barometer: 1016.3 hPa
Clouds: Clear
Visibility: 16 km
2024/06/14 10:53 KSJC 141053Z AUTO 15007KT 10SM CLR 13/09 A3001 RMK AO2 SLP163 T01280089
KNUQ - Moffett Nas/Mtn, California, USA
Distance from station: N 14km
Updated: 14/06/2024 04:15
Clear
Clear
 Wind from SE
Wind: SE 9 km/h
Temperature: 12°C
Dew Point: 9°C
Humidity: 82%
Barometer: 1016.6 hPa
Clouds: Clear
Visibility: 13 km
2024/06/14 11:15 KNUQ 141115Z AUTO 14005KT 8SM CLR 12/09 A3002 RMK AO2
 
KPAO - Palo Alto, California, USA
Distance from station: NNW 23km
Updated: 13/06/2024 20:47
NOT Current
Clear
Clear
 Wind from NW
Wind: NW 19 km/h
Temperature: 14°C
Dew Point: 8°C
Humidity: 67%
Barometer: 1016.9 hPa
Clouds: Clear
Visibility: 16 km
2024/06/14 03:47 KPAO 140347Z 32010KT 10SM SKC 14/08 A3003 RMK LAST
KRHV - San Jose/Reid, California, USA
Distance from station: ENE 19km
Updated: 13/06/2024 21:55
NOT Current
Clear
Clear
 Wind from WNW
Wind: WNW 7 km/h
Temperature: 15°C
Dew Point: 9°C
Humidity: 68%
Barometer: 1017.6 hPa
Clouds: Clear
Visibility: 16 km
2024/06/14 04:55 KRHV 140455Z 30004KT 10SM SKC 15/09 A3005 RMK LAST
 
KOAK - Oakland, California, USA
Distance from station: NNW 50km
Updated: 14/06/2024 03:53
Few Clouds
Few Clouds
 Wind from WSW
Wind: WSW 20 km/h
Temperature: 13°C
Dew Point: 11°C
Humidity: 88%
Barometer: 1016.3 hPa
Clouds: Few Clouds
Visibility: 16 km
Cloud details: Few Clouds 366 m
2024/06/14 10:53 KOAK 141053Z 25011KT 10SM FEW012 13/11 A3001 RMK AO2 SLP162 T01330106
KSQL - San Carlos Airpo, California, USA
Distance from station: NW 34km
Updated: 14/06/2024 04:15
Clear
Clear
 Wind from calm
Wind: Calm
Temperature: 13°C
Dew Point: 10°C
Humidity: 82%
Barometer: 1016.6 hPa
Clouds: Clear
Visibility: 11 km
2024/06/14 11:15 KSQL 141115Z AUTO 00000KT 7SM CLR 13/10 A3002 RMK AO2
 
KSFO - San Francisco, California, USA
Distance from station: NW 49km
Updated: 14/06/2024 03:56
Few Clouds
Few Clouds
 Wind from NW
Wind: NW 6 km/h
Temperature: 12°C
Dew Point: 8°C
Humidity: 77%
Barometer: 1016.3 hPa
Clouds: Few Clouds
Visibility: 16 km
Cloud details: Few Clouds 274 m
2024/06/14 10:56 KSFO 141056Z 32003KT 10SM FEW009 12/08 A3001 RMK AO2 SLP161 T01170083
KE16 - San Martin, California, USA
Distance from station: ESE 43km
Updated: 14/06/2024 04:15
Mist, Overcast
Mist, Overcast
 Wind from SSE
Wind: SSE 11 km/h
Temperature: 10°C
Wind Chill: 8°C
Dew Point: 9°C
Humidity: 94%
Barometer: 1017.9 hPa
Summary: Mist
Clouds: Overcast
Visibility: 8 km
Cloud details: Overcast 183 m
2024/06/14 11:15 KE16 141115Z AUTO 15006KT 5SM BR OVC006 10/09 A3006 RMK AO2 PWINO PNO
 
KWVI - Watsonville, California, USA
Distance from station: SSE 44km
Updated: 14/06/2024 04:30
Overcast
Overcast
 Wind from NNW
Wind: NNW 6 km/h
Temperature: 11°C
Dew Point: 9°C
Humidity: 88%
Barometer: 1017.6 hPa
Clouds: Overcast
Visibility: 14 km
Cloud details: Overcast 152 m
2024/06/14 11:30 KWVI 141130Z AUTO 34003KT 9SM OVC005 11/09 A3005 RMK AO2 T01110094
KHAF - Half Moon Bay, California, USA
Distance from station: WNW 50km
Updated: 14/06/2024 04:15
Mist, Overcast
Mist, Overcast
 Wind from calm
Wind: Calm
Temperature: 10°C
Dew Point: 10°C
Humidity: 100%
Barometer: 1017.3 hPa
Summary: Mist
Clouds: Overcast
Visibility: 6 km
Cloud details: Overcast 335 m
2024/06/14 11:15 KHAF 141115Z AUTO 00000KT 4SM BR OVC011 10/10 A3004 RMK AO2
 
KHWD - Hayward, California, USA
Distance from station: N 44km
Updated: 14/06/2024 04:24
Mostly cloudy
Mostly cloudy
 Wind from NW
Wind: NW 6 km/h
Temperature: 13°C
Dew Point: 9°C
Humidity: 77%
Barometer: 1016.3 hPa
Clouds: Mostly cloudy
Visibility: 16 km
Cloud details: Mostly cloudy 457 m
2024/06/14 11:24 KHWD 141124Z AUTO 31003KT 10SM BKN015 13/09 A3001 RMK AO2 T01330094
KLVK - Livermore, California, USA
Distance from station: NNE 51km
Updated: 14/06/2024 03:53
Clear
Clear
 Wind from WNW
Wind: WNW 11 km/h
Temperature: 11°C
Dew Point: 9°C
Humidity: 88%
Barometer: 1015.6 hPa
Clouds: Clear
Visibility: 11 km
2024/06/14 10:53 KLVK 141053Z AUTO 29006KT 7SM CLR 11/09 A2999 RMK AO2 SLP154 T01110089